createdAt,value
2024-03-15T00:00:19.624Z,9.87
2024-03-15T00:01:24.319Z,9.78
2024-03-15T00:02:26.109Z,9.85
2024-03-15T00:03:27.911Z,9.79
2024-03-15T00:04:29.638Z,9.86
2024-03-15T00:05:31.589Z,9.86
2024-03-15T00:06:33.626Z,9.79
2024-03-15T00:07:35.433Z,9.86
2024-03-15T00:08:38.711Z,9.74
2024-03-15T00:09:40.911Z,9.82
2024-03-15T00:10:42.781Z,9.95
2024-03-15T00:11:44.818Z,9.83
2024-03-15T00:12:47.127Z,9.77
2024-03-15T00:13:49.096Z,9.65
2024-03-15T00:14:50.874Z,9.60
2024-03-15T00:15:53.324Z,9.71
2024-03-15T00:16:56.263Z,9.67
2024-03-15T00:17:59.660Z,9.64
2024-03-15T00:19:03.456Z,9.60
2024-03-15T00:20:08.125Z,9.69
2024-03-15T00:21:11.485Z,9.63
2024-03-15T00:22:13.945Z,9.66
2024-03-15T00:23:15.682Z,9.58
2024-03-15T00:24:17.444Z,9.45
2024-03-15T00:25:22.659Z,9.62
2024-03-15T00:26:24.531Z,9.62
2024-03-15T00:27:26.756Z,9.55
2024-03-15T00:28:28.560Z,9.34
2024-03-15T00:29:33.464Z,9.28
2024-03-15T00:30:35.347Z,9.31
2024-03-15T00:31:40.391Z,9.44
2024-03-15T00:32:42.599Z,9.39
2024-03-15T00:33:44.494Z,9.42
2024-03-15T00:34:46.315Z,9.41
2024-03-15T00:35:48.028Z,9.48
2024-03-15T00:36:49.903Z,9.47
2024-03-15T00:37:51.980Z,9.31
2024-03-15T00:38:53.745Z,9.28
2024-03-15T00:39:55.593Z,9.21
2024-03-15T00:40:57.370Z,9.22
2024-03-15T00:41:59.154Z,9.19
2024-03-15T00:43:02.117Z,9.22
2024-03-15T00:44:06.067Z,9.31
2024-03-15T00:45:08.573Z,9.31
2024-03-15T00:46:10.426Z,9.39
2024-03-15T00:47:14.085Z,9.40
2024-03-15T00:48:16.522Z,9.39
2024-03-15T00:49:18.417Z,9.31
2024-03-15T00:50:20.217Z,9.28
2024-03-15T00:51:21.966Z,9.29
2024-03-15T00:52:24.277Z,9.22
2024-03-15T00:53:26.293Z,9.09
2024-03-15T00:54:28.686Z,9.10
2024-03-15T00:55:32.197Z,9.17
2024-03-15T00:56:34.144Z,9.12
2024-03-15T00:57:36.086Z,8.95
2024-03-15T00:58:38.558Z,9.00
2024-03-15T00:59:40.921Z,8.92
2024-03-15T01:00:43.662Z,8.79
2024-03-15T01:01:45.520Z,8.64
2024-03-15T01:02:47.306Z,8.74
2024-03-15T01:03:49.433Z,8.81
2024-03-15T01:04:52.308Z,9.00
2024-03-15T01:05:54.436Z,8.96
2024-03-15T01:06:56.216Z,8.91
2024-03-15T01:07:58.024Z,9.01
2024-03-15T01:09:00.089Z,9.01
2024-03-15T01:10:01.888Z,9.01
2024-03-15T01:11:03.843Z,8.99
2024-03-15T01:12:05.829Z,9.02
2024-03-15T01:13:07.646Z,8.90
2024-03-15T01:14:09.896Z,8.94
2024-03-15T01:15:12.028Z,8.97
2024-03-15T01:16:13.818Z,8.87
2024-03-15T01:17:17.178Z,8.84
2024-03-15T01:18:19.304Z,8.94
2024-03-15T01:19:21.422Z,8.86
2024-03-15T01:20:23.216Z,8.75
2024-03-15T01:21:27.290Z,8.60
2024-03-15T01:22:29.208Z,8.80
2024-03-15T01:23:32.881Z,8.80
2024-03-15T01:24:34.951Z,8.83
2024-03-15T01:25:39.118Z,8.84
2024-03-15T01:26:41.313Z,8.88
2024-03-15T01:27:43.996Z,8.75
2024-03-15T01:28:45.732Z,8.90
2024-03-15T01:29:48.077Z,8.74
2024-03-15T01:30:49.999Z,8.68
2024-03-15T01:31:51.942Z,8.61
2024-03-15T01:32:53.735Z,8.77
2024-03-15T01:33:56.910Z,8.75
2024-03-15T01:34:59.258Z,8.76
2024-03-15T01:36:01.014Z,8.71
2024-03-15T01:37:03.830Z,8.90
2024-03-15T01:38:05.599Z,8.88
2024-03-15T01:39:07.919Z,8.79
2024-03-15T01:40:12.384Z,8.65
2024-03-15T01:41:14.164Z,8.58
2024-03-15T01:42:16.669Z,8.68
2024-03-15T01:43:18.476Z,8.63
2024-03-15T01:44:20.224Z,8.76
2024-03-15T01:45:22.363Z,8.71
2024-03-15T01:46:24.335Z,8.79
2024-03-15T01:47:28.754Z,8.67
2024-03-15T01:48:30.626Z,8.70
2024-03-15T01:49:32.399Z,8.84
2024-03-15T01:50:39.957Z,8.84
2024-03-15T01:51:42.067Z,8.75
2024-03-15T01:52:44.304Z,8.70
2024-03-15T01:53:46.168Z,8.43
2024-03-15T01:54:48.560Z,8.32
2024-03-15T01:55:50.583Z,8.47
2024-03-15T01:56:52.749Z,8.55
2024-03-15T01:57:54.722Z,8.60
2024-03-15T01:58:56.534Z,8.63
2024-03-15T02:00:01.347Z,8.65
2024-03-15T02:01:03.870Z,8.69
2024-03-15T02:02:06.718Z,8.57
2024-03-15T02:03:10.007Z,8.52
2024-03-15T02:04:11.841Z,8.48
2024-03-15T02:05:14.305Z,8.30
2024-03-15T02:06:16.283Z,8.50
2024-03-15T02:07:18.379Z,8.72
2024-03-15T02:08:20.287Z,8.48
2024-03-15T02:09:22.597Z,8.56
2024-03-15T02:10:27.205Z,8.58
2024-03-15T02:11:29.036Z,8.63
2024-03-15T02:12:31.298Z,8.66
2024-03-15T02:13:33.056Z,8.62
2024-03-15T02:14:34.833Z,8.70
2024-03-15T02:15:37.494Z,8.62
2024-03-15T02:16:39.275Z,8.76
2024-03-15T02:17:44.009Z,8.79
2024-03-15T02:18:46.114Z,8.75
2024-03-15T02:19:47.950Z,8.59
2024-03-15T02:20:49.697Z,8.48
2024-03-15T02:21:51.502Z,8.56
2024-03-15T02:22:54.540Z,8.61
2024-03-15T02:23:56.285Z,8.52
2024-03-15T02:24:58.115Z,8.52
2024-03-15T02:25:59.888Z,8.63
2024-03-15T02:27:02.728Z,8.50
2024-03-15T02:28:08.066Z,8.55
2024-03-15T02:29:10.263Z,8.55
2024-03-15T02:30:13.211Z,8.63
2024-03-15T02:31:15.120Z,8.59
2024-03-15T02:32:16.839Z,8.61
2024-03-15T02:33:19.359Z,8.59
2024-03-15T02:34:21.259Z,8.69
2024-03-15T02:35:27.958Z,8.62
2024-03-15T02:36:34.286Z,8.66
2024-03-15T02:37:38.870Z,8.78
2024-03-15T02:38:40.895Z,8.72
2024-03-15T02:39:42.740Z,8.55
2024-03-15T02:40:44.506Z,8.55
2024-03-15T02:41:47.232Z,8.64
2024-03-15T02:42:49.230Z,8.64
2024-03-15T02:43:51.412Z,8.78
2024-03-15T02:44:53.194Z,8.64
2024-03-15T02:45:55.036Z,8.61
2024-03-15T02:46:57.884Z,8.60
2024-03-15T02:47:59.748Z,8.60
2024-03-15T02:49:01.940Z,8.70
2024-03-15T02:50:04.233Z,8.72
2024-03-15T02:51:06.500Z,8.65
2024-03-15T02:52:08.296Z,8.76
2024-03-15T02:53:10.981Z,8.75
2024-03-15T02:54:15.092Z,8.71
2024-03-15T02:55:17.151Z,8.72
2024-03-15T02:56:19.004Z,8.70
2024-03-15T02:57:21.324Z,8.60
2024-03-15T02:58:23.204Z,8.67
2024-03-15T02:59:25.271Z,8.63
2024-03-15T03:00:27.065Z,8.55
2024-03-15T03:01:28.886Z,8.57
2024-03-15T03:02:30.684Z,8.40
2024-03-15T03:03:32.739Z,8.27
2024-03-15T03:04:36.721Z,8.33
2024-03-15T03:05:38.558Z,8.28
2024-03-15T03:06:40.376Z,8.33
2024-03-15T03:07:42.162Z,8.20
2024-03-15T03:08:43.890Z,8.32
2024-03-15T03:09:45.980Z,8.18
2024-03-15T03:10:47.823Z,8.24
2024-03-15T03:11:49.533Z,8.16
2024-03-15T03:12:51.393Z,8.18
2024-03-15T03:13:53.315Z,8.01
2024-03-15T03:14:55.303Z,7.99
2024-03-15T03:15:57.123Z,7.89
2024-03-15T03:16:58.945Z,8.11
2024-03-15T03:18:01.310Z,8.09
2024-03-15T03:19:06.484Z,8.10
2024-03-15T03:20:12.650Z,8.16
2024-03-15T03:21:14.736Z,8.13
2024-03-15T03:22:18.736Z,8.02
2024-03-15T03:23:20.536Z,8.03
2024-03-15T03:24:22.319Z,8.15
2024-03-15T03:25:25.336Z,8.24
2024-03-15T03:26:27.617Z,8.18
2024-03-15T03:27:29.380Z,8.14
2024-03-15T03:28:31.205Z,8.18
2024-03-15T03:29:32.968Z,8.11
2024-03-15T03:30:34.991Z,8.26
2024-03-15T03:31:36.786Z,8.28
2024-03-15T03:32:39.422Z,8.39
2024-03-15T03:33:41.246Z,8.22
2024-03-15T03:34:43.032Z,8.21
2024-03-15T03:35:45.038Z,8.14
2024-03-15T03:36:46.892Z,8.03
2024-03-15T03:37:48.673Z,7.98
2024-03-15T03:38:50.376Z,8.00
2024-03-15T03:39:52.240Z,8.06
2024-03-15T03:40:54.327Z,8.01
2024-03-15T03:41:56.538Z,7.99
2024-03-15T03:42:58.848Z,7.98
2024-03-15T03:44:00.603Z,8.11
2024-03-15T03:45:02.365Z,8.18
2024-03-15T03:46:08.020Z,8.06
2024-03-15T03:47:10.479Z,8.01
2024-03-15T03:48:12.434Z,8.08
2024-03-15T03:49:14.354Z,8.04
2024-03-15T03:50:16.785Z,7.98
2024-03-15T03:51:20.125Z,8.00
2024-03-15T03:52:21.886Z,7.93
2024-03-15T03:53:23.809Z,7.93
2024-03-15T03:54:25.840Z,7.82
2024-03-15T03:55:27.611Z,7.90
2024-03-15T03:56:30.308Z,7.99
2024-03-15T03:57:39.485Z,7.94
2024-03-15T03:58:47.896Z,7.84
2024-03-15T03:59:50.280Z,7.98
2024-03-15T04:00:52.350Z,7.89
2024-03-15T04:01:54.553Z,7.76
2024-03-15T04:02:56.313Z,7.77
2024-03-15T04:03:58.137Z,7.94
2024-03-15T04:05:00.043Z,7.93
2024-03-15T04:06:01.793Z,7.93
2024-03-15T04:07:03.784Z,7.93
2024-03-15T04:08:05.712Z,7.79
2024-03-15T04:09:08.515Z,7.65
2024-03-15T04:10:10.972Z,7.59
2024-03-15T04:11:12.819Z,7.67
2024-03-15T04:12:15.032Z,7.76
2024-03-15T04:13:16.811Z,7.77
2024-03-15T04:14:18.535Z,7.73
2024-03-15T04:15:26.142Z,7.66
2024-03-15T04:16:32.154Z,7.76
2024-03-15T04:17:36.232Z,7.73
2024-03-15T04:18:38.145Z,7.61
2024-03-15T04:19:41.666Z,7.70
2024-03-15T04:20:47.619Z,7.71
2024-03-15T04:21:49.667Z,7.59
2024-03-15T04:22:52.107Z,7.70
2024-03-15T04:23:56.866Z,7.72
2024-03-15T04:25:00.308Z,7.82
2024-03-15T04:26:02.030Z,7.57
2024-03-15T04:27:04.782Z,7.70
2024-03-15T04:28:07.562Z,7.78
2024-03-15T04:29:09.311Z,7.65
2024-03-15T04:30:17.819Z,7.67
2024-03-15T04:31:21.827Z,7.63
2024-03-15T04:32:23.627Z,7.64
2024-03-15T04:33:25.743Z,7.68
2024-03-15T04:34:27.535Z,7.70
2024-03-15T04:35:30.930Z,7.59
2024-03-15T04:36:32.822Z,7.54
2024-03-15T04:37:35.626Z,7.56
2024-03-15T04:38:38.903Z,7.52
2024-03-15T04:39:40.888Z,7.58
2024-03-15T04:40:43.041Z,7.58
2024-03-15T04:41:44.772Z,7.59
2024-03-15T04:42:48.103Z,7.56
2024-03-15T04:43:53.496Z,7.56
2024-03-15T04:44:55.702Z,7.57
2024-03-15T04:45:57.989Z,7.53
2024-03-15T04:47:02.174Z,7.58
2024-03-15T04:48:04.541Z,7.64
2024-03-15T04:49:08.305Z,7.56
2024-03-15T04:50:12.950Z,7.49
2024-03-15T04:51:14.709Z,7.63
2024-03-15T04:52:16.578Z,7.56
2024-03-15T04:53:18.302Z,7.46
2024-03-15T04:54:22.531Z,7.48
2024-03-15T04:55:24.327Z,7.43
2024-03-15T04:56:26.259Z,7.46
2024-03-15T04:57:28.522Z,7.45
2024-03-15T04:58:31.912Z,7.26
2024-03-15T04:59:34.586Z,7.22
2024-03-15T05:00:36.732Z,7.36
2024-03-15T05:01:39.141Z,7.66
2024-03-15T05:02:40.916Z,7.65
2024-03-15T05:03:43.922Z,7.49
2024-03-15T05:04:47.072Z,7.48
2024-03-15T05:05:48.925Z,7.41
2024-03-15T05:06:50.718Z,7.44
2024-03-15T05:07:54.662Z,7.40
2024-03-15T05:09:04.153Z,7.51
2024-03-15T05:10:11.017Z,7.80
2024-03-15T05:11:14.502Z,7.69
2024-03-15T05:12:16.312Z,7.45
2024-03-15T05:13:18.053Z,7.41
2024-03-15T05:14:19.844Z,7.21
2024-03-15T05:15:22.260Z,6.90
2024-03-15T05:16:24.201Z,6.95
2024-03-15T05:17:25.980Z,6.97
2024-03-15T05:18:27.754Z,7.12
2024-03-15T05:19:33.362Z,7.05
2024-03-15T05:20:40.308Z,7.12
2024-03-15T05:21:42.095Z,7.25
2024-03-15T05:22:47.366Z,7.27
2024-03-15T05:23:49.461Z,7.28
2024-03-15T05:24:51.676Z,7.37
2024-03-15T05:25:53.699Z,7.40
2024-03-15T05:26:55.464Z,7.40
2024-03-15T05:27:57.260Z,7.39
2024-03-15T05:28:59.064Z,7.40
2024-03-15T05:30:01.438Z,7.45
2024-03-15T05:31:07.842Z,7.40
2024-03-15T05:32:10.032Z,7.47
2024-03-15T05:33:11.881Z,7.45
2024-03-15T05:34:16.495Z,7.40
2024-03-15T05:35:21.910Z,7.43
2024-03-15T05:36:24.490Z,7.36
2024-03-15T05:37:27.644Z,7.51
2024-03-15T05:38:29.388Z,7.59
2024-03-15T05:39:32.787Z,7.57
2024-03-15T05:40:34.656Z,7.51
2024-03-15T05:41:37.388Z,7.54
2024-03-15T05:42:39.270Z,7.51
2024-03-15T05:43:41.157Z,7.48
2024-03-15T05:44:42.909Z,7.58
2024-03-15T05:45:44.980Z,7.85
2024-03-15T05:46:47.036Z,8.38
2024-03-15T05:47:50.473Z,9.12
2024-03-15T05:48:54.711Z,9.98
2024-03-15T05:49:59.806Z,10.73
2024-03-15T05:51:02.438Z,11.48
2024-03-15T05:52:04.476Z,11.99
2024-03-15T05:53:06.652Z,12.12
2024-03-15T05:54:09.749Z,12.39
2024-03-15T05:55:12.809Z,12.84
2024-03-15T05:56:16.019Z,12.95
2024-03-15T05:57:18.162Z,13.03
2024-03-15T05:58:20.708Z,13.04
2024-03-15T05:59:22.482Z,13.31
2024-03-15T06:00:24.728Z,13.30
2024-03-15T06:01:27.016Z,12.85
2024-03-15T06:02:28.771Z,12.69
2024-03-15T06:03:30.674Z,12.17
2024-03-15T06:04:35.209Z,11.89
2024-03-15T06:05:37.129Z,11.74
2024-03-15T06:06:41.657Z,11.48
2024-03-15T06:07:43.562Z,11.07
2024-03-15T06:08:45.560Z,10.95
2024-03-15T06:09:47.388Z,10.64
2024-03-15T06:10:49.262Z,10.96
2024-03-15T06:11:52.559Z,11.04
2024-03-15T06:12:56.403Z,11.44
2024-03-15T06:13:58.544Z,11.12
2024-03-15T06:15:00.490Z,11.17
2024-03-15T06:16:02.326Z,10.99
2024-03-15T06:17:05.707Z,11.09
2024-03-15T06:18:07.587Z,11.10
2024-03-15T06:19:09.616Z,11.08
2024-03-15T06:20:11.819Z,10.85
2024-03-15T06:21:13.721Z,10.88
2024-03-15T06:22:15.847Z,10.73
2024-03-15T06:23:17.545Z,10.53
2024-03-15T06:24:20.740Z,10.42
2024-03-15T06:25:22.755Z,10.65
2024-03-15T06:26:24.475Z,10.83
2024-03-15T06:27:26.624Z,10.93
2024-03-15T06:28:28.631Z,11.14
2024-03-15T06:29:35.077Z,11.36
2024-03-15T06:30:44.488Z,11.31
2024-03-15T06:31:46.384Z,11.53
2024-03-15T06:32:48.425Z,11.46
2024-03-15T06:33:51.305Z,11.54
2024-03-15T06:35:02.019Z,11.50
2024-03-15T06:36:06.782Z,10.76
2024-03-15T06:37:10.671Z,11.13
2024-03-15T06:38:28.784Z,11.53
2024-03-15T06:39:36.860Z,11.38
2024-03-15T06:40:57.438Z,11.46
2024-03-15T06:41:59.539Z,11.39
2024-03-15T06:43:04.345Z,11.93
2024-03-15T06:44:15.396Z,11.85
2024-03-15T06:45:25.589Z,11.84
2024-03-15T06:46:30.729Z,11.97
2024-03-15T06:47:33.375Z,11.72
2024-03-15T06:48:45.365Z,11.56
2024-03-15T06:50:07.839Z,11.79
2024-03-15T06:51:28.578Z,11.84
2024-03-15T06:52:35.817Z,12.29
2024-03-15T06:53:38.245Z,12.53
2024-03-15T06:54:40.060Z,12.33
2024-03-15T06:56:46.224Z,12.42
2024-03-15T06:57:49.983Z,12.17
2024-03-15T06:58:51.936Z,12.27
2024-03-15T06:59:53.663Z,12.43
2024-03-15T07:00:55.734Z,12.80
2024-03-15T07:01:57.620Z,12.74
2024-03-15T07:02:59.377Z,12.55
2024-03-15T07:04:01.194Z,12.46
2024-03-15T07:05:05.098Z,11.75
2024-03-15T07:06:07.766Z,12.02
2024-03-15T07:07:09.583Z,12.10
2024-03-15T07:08:11.377Z,12.51
2024-03-15T07:09:16.255Z,12.85
2024-03-15T07:10:18.827Z,13.07
2024-03-15T07:11:21.004Z,13.17
2024-03-15T07:12:24.192Z,13.06
2024-03-15T07:13:25.994Z,13.06
2024-03-15T07:14:27.723Z,12.88
2024-03-15T07:15:30.194Z,13.20
2024-03-15T07:16:32.894Z,13.66
2024-03-15T07:17:37.221Z,13.38
2024-03-15T07:18:40.944Z,13.48
2024-03-15T07:19:43.160Z,13.67
2024-03-15T07:20:45.274Z,13.79
2024-03-15T07:21:47.350Z,13.83
2024-03-15T07:22:49.204Z,13.87
2024-03-15T07:23:51.616Z,13.94
2024-03-15T07:24:53.418Z,14.13
2024-03-15T07:25:55.185Z,13.68
2024-03-15T07:26:57.370Z,13.71
2024-03-15T07:27:59.186Z,14.02
2024-03-15T07:29:00.971Z,14.54
2024-03-15T07:30:05.652Z,15.54
2024-03-15T07:31:10.187Z,15.83
2024-03-15T07:32:12.409Z,15.22
2024-03-15T07:33:14.399Z,14.52
2024-03-15T07:34:17.126Z,14.35
2024-03-15T07:35:19.168Z,14.56
2024-03-15T07:36:22.641Z,14.42
2024-03-15T07:37:24.861Z,14.36
2024-03-15T07:38:27.477Z,14.45
2024-03-15T07:39:33.887Z,14.81
2024-03-15T07:40:36.538Z,14.48
2024-03-15T07:41:40.019Z,14.36
2024-03-15T07:42:42.794Z,14.57
2024-03-15T07:43:45.359Z,14.98
2024-03-15T07:44:50.057Z,15.32
2024-03-15T07:45:51.920Z,15.45
2024-03-15T07:46:54.150Z,15.45
2024-03-15T07:47:58.067Z,15.53
2024-03-15T07:49:01.026Z,15.27
2024-03-15T07:50:02.983Z,15.07
2024-03-15T07:51:04.951Z,14.82
2024-03-15T07:52:07.860Z,15.11
2024-03-15T07:53:10.144Z,15.31
2024-03-15T07:54:12.145Z,14.97
2024-03-15T07:55:14.420Z,15.24
2024-03-15T07:56:16.500Z,14.93
2024-03-15T07:57:18.345Z,15.29
2024-03-15T07:58:20.535Z,14.87
2024-03-15T07:59:22.340Z,14.29
2024-03-15T08:00:24.330Z,14.24
2024-03-15T08:01:26.665Z,14.10
2024-03-15T08:02:28.471Z,14.49
2024-03-15T08:03:30.268Z,14.84
2024-03-15T08:04:34.095Z,14.96
2024-03-15T08:05:37.150Z,14.77
2024-03-15T08:06:39.878Z,15.21
2024-03-15T08:07:44.791Z,15.45
2024-03-15T08:08:46.779Z,15.50
2024-03-15T08:09:48.820Z,15.03
2024-03-15T08:10:50.753Z,14.91
2024-03-15T08:11:54.101Z,14.80
2024-03-15T08:12:56.040Z,14.77
2024-03-15T08:13:57.899Z,14.66
2024-03-15T08:14:59.685Z,14.91
2024-03-15T08:16:10.218Z,14.76
2024-03-15T08:17:12.298Z,14.89
2024-03-15T08:18:15.380Z,14.95
2024-03-15T08:19:17.485Z,15.17
2024-03-15T08:20:19.419Z,15.36
2024-03-15T08:21:21.951Z,15.48
2024-03-15T08:22:24.117Z,15.55
2024-03-15T08:23:25.899Z,15.58
2024-03-15T08:24:28.595Z,15.85
2024-03-15T08:25:30.478Z,15.87
2024-03-15T08:26:33.490Z,15.60
2024-03-15T08:27:36.613Z,15.92
2024-03-15T08:28:38.536Z,16.01
2024-03-15T08:29:41.022Z,16.19
2024-03-15T08:30:45.325Z,16.47
2024-03-15T08:31:48.962Z,16.20
2024-03-15T08:32:52.736Z,16.20
2024-03-15T08:33:54.568Z,16.03
2024-03-15T08:34:58.190Z,16.26
2024-03-15T08:36:01.718Z,16.05
2024-03-15T08:37:03.763Z,15.78
2024-03-15T08:38:06.638Z,15.87
2024-03-15T08:39:13.998Z,16.14
2024-03-15T08:40:17.381Z,15.90
2024-03-15T08:41:19.186Z,15.70
2024-03-15T08:42:21.940Z,15.95
2024-03-15T08:43:24.059Z,15.77
2024-03-15T08:44:26.034Z,15.89
2024-03-15T08:45:30.298Z,16.19
2024-03-15T08:46:33.066Z,16.31
2024-03-15T08:47:46.296Z,16.64
2024-03-15T08:48:57.174Z,16.61
2024-03-15T08:50:01.620Z,16.48
2024-03-15T08:51:06.336Z,16.37
2024-03-15T08:52:08.183Z,17.03
2024-03-15T08:53:10.976Z,17.35
2024-03-15T08:54:13.433Z,17.65
2024-03-15T08:55:17.226Z,17.67
2024-03-15T08:56:20.012Z,17.84
2024-03-15T08:57:24.151Z,17.90
2024-03-15T08:58:29.349Z,17.34
2024-03-15T08:59:31.429Z,17.45
2024-03-15T09:00:33.913Z,17.41
2024-03-15T09:01:36.526Z,17.41
2024-03-15T09:02:41.720Z,17.20
2024-03-15T09:03:46.898Z,17.52
2024-03-15T09:04:50.164Z,17.51
2024-03-15T09:05:52.118Z,17.61
2024-03-15T09:06:53.929Z,17.74
2024-03-15T09:07:55.796Z,17.64
2024-03-15T09:08:58.273Z,17.29
2024-03-15T09:10:00.540Z,17.36
2024-03-15T09:11:03.510Z,17.16
2024-03-15T09:12:05.503Z,17.08
2024-03-15T09:13:08.058Z,17.13
2024-03-15T09:14:11.907Z,16.95
2024-03-15T09:15:14.256Z,17.04
2024-03-15T09:16:16.200Z,17.43
2024-03-15T09:17:19.380Z,17.78
2024-03-15T09:18:21.669Z,17.60
2024-03-15T09:19:23.662Z,17.57
2024-03-15T09:20:32.067Z,17.58
2024-03-15T09:21:34.219Z,17.54
2024-03-15T09:22:37.175Z,17.89
2024-03-15T09:23:39.064Z,17.85
2024-03-15T09:24:41.051Z,17.87
2024-03-15T09:25:45.605Z,17.90
2024-03-15T09:26:48.937Z,18.29
2024-03-15T09:27:54.563Z,18.38
2024-03-15T09:29:01.205Z,18.04
2024-03-15T09:30:17.466Z,17.65
2024-03-15T09:31:41.246Z,17.92
2024-03-15T09:32:50.089Z,17.87
2024-03-15T09:33:55.941Z,17.45
2024-03-15T09:34:58.227Z,17.91
2024-03-15T09:36:00.882Z,18.16
2024-03-15T09:37:07.989Z,18.46
2024-03-15T09:38:10.630Z,18.63
2024-03-15T09:39:15.180Z,18.78
2024-03-15T09:40:22.582Z,18.92
2024-03-15T09:41:24.973Z,18.90
2024-03-15T09:42:28.698Z,18.78
2024-03-15T09:43:31.900Z,18.42
2024-03-15T09:44:33.848Z,18.23
2024-03-15T09:45:36.881Z,18.72
2024-03-15T09:46:39.190Z,18.68
2024-03-15T09:47:42.194Z,18.83
2024-03-15T09:48:49.138Z,18.63
2024-03-15T09:49:50.912Z,18.90
2024-03-15T09:50:57.795Z,19.14
2024-03-15T09:51:59.850Z,19.01
2024-03-15T09:53:01.907Z,18.96
2024-03-15T09:54:04.219Z,18.68
2024-03-15T09:55:14.843Z,18.63
2024-03-15T09:56:18.953Z,18.78
2024-03-15T09:57:20.851Z,18.81
2024-03-15T09:58:22.943Z,18.83
2024-03-15T09:59:32.473Z,18.66
2024-03-15T10:00:34.769Z,18.84
2024-03-15T10:01:38.466Z,18.81
2024-03-15T10:02:42.309Z,18.53
2024-03-15T10:03:45.079Z,18.76
2024-03-15T10:04:47.850Z,18.87
2024-03-15T10:05:49.758Z,19.16
2024-03-15T10:06:52.108Z,19.28
2024-03-15T10:07:53.962Z,19.41
2024-03-15T10:08:55.832Z,19.28
2024-03-15T10:09:57.709Z,19.48
2024-03-15T10:11:00.098Z,19.48
2024-03-15T10:12:02.325Z,19.49
2024-03-15T10:13:05.795Z,19.34
2024-03-15T10:14:09.272Z,18.90
2024-03-15T10:15:16.150Z,18.97
2024-03-15T10:16:17.989Z,19.19
2024-03-15T10:17:20.576Z,19.52
2024-03-15T10:18:22.551Z,19.43
2024-03-15T10:19:25.108Z,18.97
2024-03-15T10:20:27.239Z,19.26
2024-03-15T10:21:29.292Z,19.10
2024-03-15T10:22:31.926Z,19.56
2024-03-15T10:23:33.706Z,19.50
2024-03-15T10:24:35.656Z,19.63
2024-03-15T10:25:37.417Z,19.40
2024-03-15T10:26:39.474Z,19.58
2024-03-15T10:27:41.616Z,19.73
2024-03-15T10:28:45.106Z,19.52
2024-03-15T10:29:46.939Z,19.19
2024-03-15T10:30:48.975Z,19.19
2024-03-15T10:31:50.848Z,19.10
2024-03-15T10:32:55.003Z,18.45
2024-03-15T10:33:56.886Z,18.28
2024-03-15T10:34:58.646Z,18.01
2024-03-15T10:36:00.463Z,18.03
2024-03-15T10:37:02.308Z,17.77
2024-03-15T10:38:05.494Z,17.74
2024-03-15T10:39:10.082Z,17.63
2024-03-15T10:40:17.358Z,17.38
2024-03-15T10:41:19.643Z,17.48
2024-03-15T10:42:22.230Z,17.38
2024-03-15T10:43:24.704Z,17.34
2024-03-15T10:44:26.569Z,16.74
2024-03-15T10:45:29.227Z,16.86
2024-03-15T10:46:32.076Z,16.66
2024-03-15T10:47:34.962Z,16.65
2024-03-15T10:48:37.252Z,16.70
2024-03-15T10:49:41.516Z,16.62
2024-03-15T10:50:45.136Z,16.62
2024-03-15T10:51:48.131Z,16.75
2024-03-15T10:52:57.192Z,16.70
2024-03-15T10:54:00.456Z,16.67
2024-03-15T10:55:04.769Z,16.80
2024-03-15T10:56:08.252Z,16.79
2024-03-15T10:57:10.932Z,16.82
2024-03-15T10:58:12.783Z,16.90
2024-03-15T10:59:15.131Z,16.79
2024-03-15T11:00:22.457Z,16.06
2024-03-15T11:01:25.344Z,15.89
2024-03-15T11:02:27.490Z,16.10
2024-03-15T11:03:32.650Z,15.85
2024-03-15T11:04:35.037Z,15.64
2024-03-15T11:05:36.987Z,15.66
2024-03-15T11:06:40.445Z,15.76
2024-03-15T11:07:42.303Z,15.88
2024-03-15T11:08:44.154Z,15.92
2024-03-15T11:09:47.689Z,15.87
2024-03-15T11:10:55.957Z,15.82
2024-03-15T11:12:02.873Z,15.84
2024-03-15T11:13:05.110Z,15.79
2024-03-15T11:14:14.995Z,15.74
2024-03-15T11:15:20.242Z,15.53
2024-03-15T11:16:25.617Z,15.54
2024-03-15T11:17:27.719Z,15.50
2024-03-15T11:18:38.803Z,15.63
2024-03-15T11:19:41.769Z,15.94
2024-03-15T11:20:45.601Z,16.02
2024-03-15T11:21:47.410Z,16.09
2024-03-15T11:22:56.824Z,16.19
2024-03-15T11:24:07.747Z,16.15
2024-03-15T11:25:17.550Z,15.97
2024-03-15T11:26:23.923Z,15.83
2024-03-15T11:27:26.349Z,16.06
2024-03-15T11:28:33.325Z,16.15
2024-03-15T11:29:37.883Z,16.21
2024-03-15T11:30:41.140Z,16.20
2024-03-15T11:31:46.043Z,15.97
2024-03-15T11:32:47.964Z,15.90
2024-03-15T11:33:54.695Z,15.95
2024-03-15T11:34:56.683Z,16.18
2024-03-15T11:35:59.557Z,16.23
2024-03-15T11:37:02.402Z,16.09
2024-03-15T11:38:04.211Z,15.85
2024-03-15T11:39:11.311Z,15.82
2024-03-15T11:40:13.085Z,15.62
2024-03-15T11:41:15.530Z,15.36
2024-03-15T11:42:17.610Z,15.50
2024-03-15T11:43:19.373Z,15.58
2024-03-15T11:44:21.193Z,16.09
2024-03-15T11:45:22.997Z,16.29
2024-03-15T11:46:25.513Z,16.29
2024-03-15T11:47:27.761Z,16.69
2024-03-15T11:48:29.640Z,16.96
2024-03-15T11:49:31.561Z,16.44
2024-03-15T11:50:36.063Z,16.64
2024-03-15T11:51:37.925Z,16.75
2024-03-15T11:52:40.010Z,16.74
2024-03-15T11:53:42.438Z,16.69
2024-03-15T11:54:44.285Z,16.98
2024-03-15T11:55:50.592Z,17.19
2024-03-15T11:56:58.895Z,17.41
2024-03-15T11:58:01.192Z,17.60
2024-03-15T11:59:03.801Z,17.57
2024-03-15T12:00:18.874Z,17.55
2024-03-15T12:01:21.248Z,17.81
2024-03-15T12:02:23.577Z,17.93
2024-03-15T12:03:31.604Z,18.13
2024-03-15T12:04:33.658Z,18.42
2024-03-15T12:05:39.421Z,18.43
2024-03-15T12:06:41.488Z,18.14
2024-03-15T12:07:44.591Z,18.45
2024-03-15T12:08:46.417Z,18.37
2024-03-15T12:09:49.181Z,18.27
2024-03-15T12:10:53.063Z,18.58
2024-03-15T12:11:56.398Z,18.72
2024-03-15T12:12:58.200Z,18.86
2024-03-15T12:14:00.499Z,18.56
2024-03-15T12:15:02.236Z,18.59
2024-03-15T12:16:07.215Z,18.89
2024-03-15T12:17:14.972Z,18.64
2024-03-15T12:18:19.014Z,18.73
2024-03-15T12:19:21.181Z,18.83
2024-03-15T12:20:22.966Z,18.70
2024-03-15T12:21:25.772Z,19.00
2024-03-15T12:22:27.928Z,19.07
2024-03-15T12:23:29.686Z,18.93
2024-03-15T12:24:31.489Z,18.79
2024-03-15T12:25:33.313Z,18.60
2024-03-15T12:26:35.768Z,18.93
2024-03-15T12:27:37.895Z,18.96
2024-03-15T12:28:39.753Z,18.99
2024-03-15T12:29:41.827Z,18.89
2024-03-15T12:30:44.281Z,19.21
2024-03-15T12:31:46.098Z,18.80
2024-03-15T12:32:48.191Z,18.98
2024-03-15T12:33:50.153Z,19.14
2024-03-15T12:34:52.456Z,19.32
2024-03-15T12:35:56.573Z,19.35
2024-03-15T12:36:58.403Z,19.06
2024-03-15T12:38:01.460Z,19.16
2024-03-15T12:39:04.303Z,19.19
2024-03-15T12:40:14.158Z,19.00
2024-03-15T12:41:16.372Z,18.95
2024-03-15T12:42:18.171Z,18.99
2024-03-15T12:43:24.292Z,19.10
2024-03-15T12:44:26.094Z,19.14
2024-03-15T12:45:28.330Z,19.20
2024-03-15T12:46:30.132Z,18.94
2024-03-15T12:47:37.829Z,18.86
2024-03-15T12:48:39.907Z,18.97
2024-03-15T12:49:41.663Z,18.58
2024-03-15T12:50:43.591Z,18.54
2024-03-15T12:51:45.450Z,18.69
2024-03-15T12:52:47.673Z,18.59
2024-03-15T12:53:50.608Z,18.73
2024-03-15T12:54:52.638Z,18.54
2024-03-15T12:55:54.509Z,18.62
2024-03-15T12:56:56.327Z,18.90
2024-03-15T12:57:58.142Z,18.64
2024-03-15T12:59:00.622Z,18.83
2024-03-15T13:00:02.380Z,18.76
2024-03-15T13:01:05.862Z,18.75
2024-03-15T13:02:08.424Z,18.44
2024-03-15T13:03:11.656Z,18.55
2024-03-15T13:04:13.715Z,18.49
2024-03-15T13:05:19.516Z,18.21
2024-03-15T13:06:21.263Z,18.14
2024-03-15T13:07:23.346Z,18.26
2024-03-15T13:08:25.144Z,18.19
2024-03-15T13:09:27.487Z,18.44
2024-03-15T13:10:30.084Z,18.70
2024-03-15T13:11:31.891Z,18.92
2024-03-15T13:12:33.960Z,18.83
2024-03-15T13:13:36.384Z,18.45
2024-03-15T13:14:38.472Z,18.50
2024-03-15T13:15:40.307Z,18.89
2024-03-15T13:16:42.499Z,18.93
2024-03-15T13:17:50.367Z,18.76
2024-03-15T13:18:52.698Z,18.63
2024-03-15T13:19:55.063Z,18.74
2024-03-15T13:20:57.063Z,18.74
2024-03-15T13:21:59.047Z,18.44
2024-03-15T13:23:05.957Z,18.38
2024-03-15T13:24:08.717Z,18.49
2024-03-15T13:25:27.276Z,18.63
2024-03-15T13:26:37.087Z,18.42
2024-03-15T13:27:38.931Z,18.60
2024-03-15T13:28:42.227Z,18.66
2024-03-15T13:29:44.380Z,18.61
2024-03-15T13:30:46.548Z,18.46
2024-03-15T13:31:48.437Z,18.11
2024-03-15T13:32:54.047Z,17.45
2024-03-15T13:33:56.488Z,17.60
2024-03-15T13:34:58.377Z,17.76
2024-03-15T13:36:00.618Z,18.00
2024-03-15T13:37:02.502Z,17.92
2024-03-15T13:38:04.540Z,18.04
2024-03-15T13:39:21.321Z,18.40
2024-03-15T13:40:25.242Z,18.44
2024-03-15T13:41:28.369Z,18.14
2024-03-15T13:42:30.137Z,18.18
2024-03-15T13:43:31.960Z,18.30
2024-03-15T13:44:36.149Z,18.10
2024-03-15T13:45:40.428Z,18.07